ACA183 CYYZ-CYVR
Flight info
| Callsign | ACA183 |
|---|---|
| Flight time | N/A |
| Altitude | 38000 |
| Route | URSAL4 KASED DCT VACAY DCT RIMBE DCT KP15G/N0484F400 DCT CENVI DCT KP21A DCT PETBO DCT MUSRA DCT BEVEL DCT AMENA DCT FIRNI DCT YXC DCT BOOTH CANUC5 |
| Aircraft | B789/H-SDE1E2E3FGHIJ2J3J4J5M1RWXY/LB1D1 |
Departure
| Time | N/A |
|---|---|
| Airport | Toronto Pearson International Airport (CYYZ) |
Arrival
| Time | 2026-05-04 01:48 |
|---|---|
| Airport | Vancouver International Airport (CYVR) |
| Time | Latitude | Longitude | Altitude | Speed | Heading |
|---|---|---|---|---|---|
| 2026-05-04 01:21 | 49.57520 | -119.32816 | 39873 ft | 475 kts | 275° |
| 2026-05-04 01:21 | 49.57232 | -119.64600 | 39878 ft | 477 kts | 275° |
| 2026-05-04 01:21 | 49.57016 | -119.83107 | 39808 ft | 459 kts | 275° |
| 2026-05-04 01:22 | 49.56901 | -119.91601 | 38372 ft | 467 kts | 276° |
| 2026-05-04 01:22 | 49.56854 | -119.96583 | 37725 ft | 464 kts | 276° |
| 2026-05-04 01:22 | 49.56795 | -120.01538 | 37151 ft | 461 kts | 275° |
| 2026-05-04 01:23 | 49.56719 | -120.06450 | 36623 ft | 457 kts | 275° |
| 2026-05-04 01:23 | 49.56643 | -120.11262 | 36087 ft | 454 kts | 275° |
| 2026-05-04 01:23 | 49.56575 | -120.16101 | 35584 ft | 450 kts | 275° |
| 2026-05-04 01:23 | 49.56508 | -120.20911 | 35057 ft | 447 kts | 275° |
| 2026-05-04 01:24 | 49.56433 | -120.25674 | 34540 ft | 444 kts | 275° |
| 2026-05-04 01:24 | 49.56354 | -120.30418 | 34020 ft | 442 kts | 275° |
| 2026-05-04 01:24 | 49.56278 | -120.35141 | 33454 ft | 440 kts | 275° |
| 2026-05-04 01:24 | 49.56201 | -120.39830 | 32907 ft | 437 kts | 275° |
| 2026-05-04 01:25 | 49.56120 | -120.44494 | 32380 ft | 433 kts | 274° |
| 2026-05-04 01:25 | 49.56039 | -120.49102 | 31867 ft | 429 kts | 274° |
| 2026-05-04 01:25 | 49.55985 | -120.52136 | 31524 ft | 427 kts | 274° |
| 2026-05-04 01:25 | 49.55877 | -120.58154 | 30873 ft | 422 kts | 273° |
| 2026-05-04 01:26 | 49.55792 | -120.62651 | 30378 ft | 418 kts | 272° |
| 2026-05-04 01:26 | 49.55705 | -120.67102 | 29874 ft | 414 kts | 272° |
| 2026-05-04 01:26 | 49.55619 | -120.71502 | 29325 ft | 410 kts | 272° |
| 2026-05-04 01:26 | 49.55533 | -120.75862 | 28806 ft | 406 kts | 272° |
| 2026-05-04 01:27 | 49.55446 | -120.80185 | 28326 ft | 401 kts | 272° |
| 2026-05-04 01:27 | 49.55357 | -120.84431 | 27928 ft | 394 kts | 272° |
| 2026-05-04 01:27 | 49.55299 | -120.87218 | 27648 ft | 391 kts | 272° |
| 2026-05-04 01:27 | 49.55211 | -120.91368 | 27213 ft | 386 kts | 272° |
| 2026-05-04 01:28 | 49.55094 | -120.96799 | 26637 ft | 380 kts | 272° |
| 2026-05-04 01:28 | 49.55005 | -121.00838 | 26203 ft | 375 kts | 272° |
| 2026-05-04 01:28 | 49.54916 | -121.04837 | 25778 ft | 374 kts | 271° |
| 2026-05-04 01:28 | 49.54856 | -121.07490 | 25502 ft | 374 kts | 271° |
| 2026-05-04 01:29 | 49.54733 | -121.12831 | 24937 ft | 372 kts | 271° |
| 2026-05-04 01:29 | 49.54671 | -121.15462 | 24660 ft | 370 kts | 271° |
| 2026-05-04 01:29 | 49.54577 | -121.19398 | 24240 ft | 366 kts | 271° |
| 2026-05-04 01:29 | 49.54484 | -121.23294 | 23830 ft | 363 kts | 271° |
| 2026-05-04 01:30 | 49.54391 | -121.27153 | 23408 ft | 359 kts | 271° |
| 2026-05-04 01:30 | 49.54297 | -121.30972 | 22930 ft | 356 kts | 271° |
| 2026-05-04 01:30 | 49.54201 | -121.34781 | 22495 ft | 355 kts | 271° |
| 2026-05-04 01:30 | 49.54106 | -121.38571 | 22052 ft | 353 kts | 271° |
| 2026-05-04 01:31 | 49.54008 | -121.42339 | 21682 ft | 354 kts | 271° |
| 2026-05-04 01:31 | 49.53913 | -121.46084 | 21283 ft | 353 kts | 271° |
| 2026-05-04 01:31 | 49.53813 | -121.49828 | 20883 ft | 348 kts | 270° |
| 2026-05-04 01:31 | 49.53714 | -121.53526 | 20488 ft | 345 kts | 270° |
| 2026-05-04 01:32 | 49.53615 | -121.57217 | 20100 ft | 346 kts | 270° |
| 2026-05-04 01:32 | 49.53516 | -121.60915 | 19721 ft | 347 kts | 270° |
| 2026-05-04 01:32 | 49.53413 | -121.64636 | 19353 ft | 348 kts | 270° |
| 2026-05-04 01:32 | 49.53308 | -121.68328 | 18979 ft | 343 kts | 270° |
| 2026-05-04 01:33 | 49.53206 | -121.71967 | 18606 ft | 338 kts | 270° |
| 2026-05-04 01:33 | 49.53103 | -121.75584 | 18248 ft | 339 kts | 270° |
| 2026-05-04 01:33 | 49.53001 | -121.79161 | 17834 ft | 339 kts | 270° |
| 2026-05-04 01:33 | 49.52895 | -121.82789 | 17419 ft | 338 kts | 270° |
| 2026-05-04 01:34 | 49.52788 | -121.86374 | 17030 ft | 333 kts | 270° |
| 2026-05-04 01:34 | 49.52683 | -121.89913 | 16643 ft | 331 kts | 270° |
| 2026-05-04 01:34 | 49.52577 | -121.93458 | 16272 ft | 332 kts | 269° |
| 2026-05-04 01:34 | 49.52470 | -121.97004 | 15912 ft | 329 kts | 269° |
| 2026-05-04 01:35 | 49.52363 | -122.00446 | 15555 ft | 325 kts | 269° |
| 2026-05-04 01:35 | 49.52160 | -122.03953 | 15174 ft | 326 kts | 259° |
| 2026-05-04 01:35 | 49.51230 | -122.07094 | 14817 ft | 328 kts | 239° |
| 2026-05-04 01:35 | 49.50015 | -122.10082 | 14508 ft | 331 kts | 239° |
| 2026-05-04 01:36 | 49.48796 | -122.13065 | 14172 ft | 326 kts | 239° |
| 2026-05-04 01:36 | 49.47611 | -122.16012 | 13833 ft | 323 kts | 240° |
| 2026-05-04 01:36 | 49.46436 | -122.18960 | 13463 ft | 324 kts | 240° |
| 2026-05-04 01:36 | 49.45267 | -122.21919 | 13073 ft | 322 kts | 240° |
| 2026-05-04 01:37 | 49.44118 | -122.24830 | 12696 ft | 315 kts | 240° |
| 2026-05-04 01:37 | 49.42989 | -122.27672 | 12376 ft | 308 kts | 240° |
| 2026-05-04 01:37 | 49.41897 | -122.30411 | 12229 ft | 294 kts | 240° |
| 2026-05-04 01:37 | 49.40866 | -122.33005 | 12071 ft | 283 kts | 240° |
| 2026-05-04 01:38 | 49.39790 | -122.35484 | 11807 ft | 281 kts | 231° |
| 2026-05-04 01:38 | 49.38454 | -122.37718 | 11427 ft | 285 kts | 229° |
| 2026-05-04 01:38 | 49.37142 | -122.39993 | 11047 ft | 284 kts | 230° |
| 2026-05-04 01:38 | 49.35849 | -122.42268 | 10690 ft | 282 kts | 230° |
| 2026-05-04 01:39 | 49.34550 | -122.44515 | 10329 ft | 281 kts | 229° |
| 2026-05-04 01:39 | 49.33240 | -122.46728 | 9966 ft | 280 kts | 229° |
| 2026-05-04 01:39 | 49.31936 | -122.48938 | 9594 ft | 279 kts | 229° |
| 2026-05-04 01:39 | 49.30648 | -122.51137 | 9217 ft | 276 kts | 229° |
| 2026-05-04 01:40 | 49.29366 | -122.53322 | 8853 ft | 275 kts | 229° |
| 2026-05-04 01:40 | 49.28109 | -122.55461 | 8481 ft | 273 kts | 228° |
| 2026-05-04 01:40 | 49.26846 | -122.57614 | 8124 ft | 271 kts | 229° |
| 2026-05-04 01:40 | 49.25592 | -122.59762 | 7771 ft | 270 kts | 228° |
| 2026-05-04 01:41 | 49.24340 | -122.61897 | 7418 ft | 269 kts | 228° |
| 2026-05-04 01:41 | 49.23097 | -122.64012 | 7081 ft | 267 kts | 228° |
| 2026-05-04 01:41 | 49.21864 | -122.66111 | 6736 ft | 266 kts | 228° |
| 2026-05-04 01:41 | 49.20658 | -122.68259 | 6353 ft | 263 kts | 234° |
| 2026-05-04 01:42 | 49.19727 | -122.70658 | 5990 ft | 262 kts | 239° |
| 2026-05-04 01:42 | 49.18769 | -122.73001 | 5654 ft | 259 kts | 238° |
| 2026-05-04 01:42 | 49.17818 | -122.75293 | 5321 ft | 256 kts | 238° |
| 2026-05-04 01:42 | 49.16964 | -122.77651 | 4961 ft | 252 kts | 246° |
| 2026-05-04 01:43 | 49.16439 | -122.80111 | 4686 ft | 236 kts | 256° |
| 2026-05-04 01:43 | 49.16211 | -122.82500 | 4349 ft | 225 kts | 267° |
| 2026-05-04 01:43 | 49.16350 | -122.84812 | 4023 ft | 216 kts | 280° |
| 2026-05-04 01:43 | 49.16668 | -122.86982 | 3746 ft | 204 kts | 283° |
| 2026-05-04 01:44 | 49.16941 | -122.88996 | 3456 ft | 182 kts | 281° |
| 2026-05-04 01:44 | 49.17154 | -122.90840 | 3201 ft | 176 kts | 280° |
| 2026-05-04 01:44 | 49.17360 | -122.92658 | 2994 ft | 172 kts | 281° |
| 2026-05-04 01:44 | 49.17568 | -122.94452 | 2786 ft | 170 kts | 281° |
| 2026-05-04 01:45 | 49.17768 | -122.96262 | 2476 ft | 173 kts | 280° |
| 2026-05-04 01:45 | 49.17985 | -122.98065 | 2258 ft | 172 kts | 281° |
| 2026-05-04 01:45 | 49.18399 | -123.01616 | 1812 ft | 166 kts | 281° |
| 2026-05-04 01:46 | 49.18593 | -123.03301 | 1595 ft | 156 kts | 281° |
| 2026-05-04 01:46 | 49.18778 | -123.04897 | 1408 ft | 158 kts | 281° |
| 2026-05-04 01:46 | 49.18969 | -123.06541 | 1203 ft | 151 kts | 281° |
| 2026-05-04 01:46 | 49.19146 | -123.08104 | 1004 ft | 147 kts | 281° |
| 2026-05-04 01:47 | 49.19323 | -123.09626 | 810 ft | 144 kts | 280° |
| 2026-05-04 01:47 | 49.19482 | -123.10994 | 644 ft | 143 kts | 281° |
| 2026-05-04 01:47 | 49.19654 | -123.12486 | 460 ft | 144 kts | 281° |
| 2026-05-04 01:47 | 49.19829 | -123.13989 | 277 ft | 143 kts | 281° |
| 2026-05-04 01:48 | 49.19992 | -123.15469 | 123 ft | 140 kts | 281° |
| 2026-05-04 01:48 | 49.20160 | -123.16929 | 34 ft | 138 kts | 282° |
| 2026-05-04 01:48 | 49.20293 | -123.18107 | 30 ft | 83 kts | 280° |
| 2026-05-04 01:48 | 49.20362 | -123.18723 | 30 ft | 39 kts | 280° |
| 2026-05-04 01:49 | 49.20391 | -123.19003 | 30 ft | 23 kts | 274° |
| 2026-05-04 01:49 | 49.20379 | -123.19227 | 30 ft | 20 kts | 258° |
| 2026-05-04 01:49 | 49.20352 | -123.19363 | 30 ft | 0 kts | 248° |
| 2026-05-04 01:49 | 49.20349 | -123.19377 | 30 ft | 2 kts | 248° |
| 2026-05-04 01:50 | 49.20340 | -123.19411 | 30 ft | 4 kts | 250° |
| 2026-05-04 01:50 | 49.20328 | -123.19465 | 30 ft | 6 kts | 250° |
| 2026-05-04 01:50 | 49.20311 | -123.19537 | 30 ft | 8 kts | 250° |
| 2026-05-04 01:50 | 49.20284 | -123.19603 | 30 ft | 5 kts | 208° |
| 2026-05-04 01:51 | 49.20265 | -123.19604 | 30 ft | 2 kts | 164° |
| 2026-05-04 01:51 | 49.20251 | -123.19582 | 30 ft | 4 kts | 121° |
| 2026-05-04 01:51 | 49.20240 | -123.19526 | 30 ft | 7 kts | 102° |
| 2026-05-04 01:51 | 49.20230 | -123.19444 | 30 ft | 9 kts | 100° |
| 2026-05-04 01:52 | 49.20218 | -123.19341 | 30 ft | 11 kts | 100° |
| 2026-05-04 01:52 | 49.20203 | -123.19213 | 30 ft | 13 kts | 100° |
| 2026-05-04 01:52 | 49.20186 | -123.19066 | 30 ft | 15 kts | 99° |
| 2026-05-04 01:52 | 49.20168 | -123.18898 | 30 ft | 17 kts | 99° |
| 2026-05-04 01:53 | 49.20147 | -123.18713 | 30 ft | 19 kts | 99° |
| 2026-05-04 01:53 | 49.20129 | -123.18553 | 30 ft | 5 kts | 101° |
| 2026-05-04 01:53 | 49.20113 | -123.18509 | 30 ft | 4 kts | 141° |
| 2026-05-04 01:53 | 49.20068 | -123.18496 | 30 ft | 10 kts | 172° |
| 2026-05-04 01:54 | 49.20042 | -123.18455 | 30 ft | 6 kts | 109° |
| 2026-05-04 01:54 | 49.20032 | -123.18355 | 30 ft | 11 kts | 99° |
| 2026-05-04 01:54 | 49.20019 | -123.18241 | 30 ft | 11 kts | 99° |
| 2026-05-04 01:54 | 49.20010 | -123.18164 | 30 ft | 1 kts | 108° |
| 2026-05-04 01:55 | 49.20009 | -123.18161 | 30 ft | 0 kts | 118° |
| 2026-05-04 01:55 | 49.20000 | -123.18151 | 30 ft | 3 kts | 142° |
| 2026-05-04 01:55 | 49.19974 | -123.18138 | 30 ft | 5 kts | 173° |
| 2026-05-04 01:55 | 49.19955 | -123.18141 | 30 ft | 0 kts | 189° |
| 2026-05-04 01:56 | 49.19947 | -123.18143 | 30 ft | 2 kts | 189° |
| 2026-05-04 01:56 | 49.19932 | -123.18146 | 30 ft | 1 kts | 189° |
| 2026-05-04 01:56 | 49.19933 | -123.18146 | 30 ft | 0 kts | 189° |